43PN weather

Public forecast

Using degrees Fahrenheit for public forecast. Weather courtesy of forecast.io.

Closest aviation weather report (METAR) to E L Gruber Heliport

Closest report is Heritage Field, 4.0 nm (7.5 km) E. Retrieved 2020/08/10 07:17 UTC (25 minutes ago):

KPTW 100717Z AUTO 00000KT 3SM BR CLR 22/22 A3008 RMK AO2 T02220217

Closest aviation forecast (TAF) to E L Gruber Heliport

Closest forecast is Reading Regional Carl A Spaatz Field, 17.1 nm (31.7 km) WNW. Retrieved 2020/08/10 06:22 UTC (1 hour ago):

TAF KRDG 100520Z 1006/1106 VRB02KT P6SM FEW100 TEMPO 1009/1012 4SM BR FEW010 FM101600 23006KT P6SM SCT045 FM110000 VRB03KT P6SM FEW045 FEW100